Time;durP1;ratioP1;P1;durP2;ratioP2;P2;SDS_P1;SDS_P2;PMS_P1;PMS_P2;Temp;Humidity;BMP_temperature;BMP_pressure;BME280_temperature;BME280_humidity;BME280_pressure;Samples;Min_cycle;Max_cycle;Signal;HPM_P1;HPM_P2
2023/03/09 00:00:21;;;;;;;;;;;;;;;;;;4994540;28;19960;-94
2023/03/09 00:02:50;;;;;;;;;;;;;;;;;;4993712;28;19972;-94
2023/03/09 00:05:16;;;;;;;;;;;;;;;;;;4993851;28;19922;-94
2023/03/09 00:07:42;;;;;;;;;;;;;;;;;;4993496;28;19926;-93
2023/03/09 00:10:08;;;;;;;;;;;;;;;;;;4993553;28;19948;-94
2023/03/09 00:12:34;;;;;;;;;;;;;;;;;;4993540;28;19928;-94
2023/03/09 00:14:59;;;;;;;;;;;;;;;;;;4993374;28;19969;-94
2023/03/09 00:17:25;;;;;;;;;;;;;;;;;;4993249;28;19945;-94
2023/03/09 00:20:00;;;;;;;;;;;;;;;;;;4993288;28;19928;-94
2023/03/09 00:22:26;;;;;;;;;;;;;;;;;;4993457;28;19922;-94
2023/03/09 00:24:53;;;;;;;;;;;;;;;;;;4977646;28;20294;-93
2023/03/09 00:27:22;;;;;;;;;;;;;;;;;;4993215;28;19928;-93
2023/03/09 00:29:48;;;;;;;;;;;;;;;;;;4992735;28;19930;-94
2023/03/09 00:32:26;;;;;;;;;;;;;;;;;;4970753;28;19929;-94
2023/03/09 00:35:10;;;;;;;;;;;;;;;;;;4995050;28;20012;-94
2023/03/09 00:37:39;;;;;;;;;;;;;;;;;;4992008;28;19925;-94
2023/03/09 00:40:09;;;;;;;;;;;;;;;;;;4976953;28;19929;-94
2023/03/09 00:42:40;;;;;;;;;;;;;;;;;;4977050;28;19928;-94
2023/03/09 00:45:06;;;;;;;;;;;;;;;;;;4993107;28;19922;-95
2023/03/09 00:47:32;;;;;;;;;;;;;;;;;;4993140;28;20012;-94
2023/03/09 00:50:07;;;;;;;;;;;;;;;;;;5008415;28;19922;-95
2023/03/09 00:52:34;;;;;;;;;;;;;;;;;;4993028;28;19929;-95
2023/03/09 00:55:03;;;;;;;;;;;;;;;;;;4976326;28;19968;-94
2023/03/09 00:57:29;;;;;;;;;;;;;;;;;;4977070;28;19926;-95
2023/03/09 00:59:59;;;;;;;;;;;;;;;;;;5009376;28;20455;-93
2023/03/09 01:02:35;;;;;;;;;;;;;;;;;;4991829;28;20012;-94
2023/03/09 01:05:01;;;;;;;;;;;;;;;;;;4992750;28;19926;-96
2023/03/09 01:07:32;;;;;;;;;;;;;;;;;;4989298;28;19926;-95
2023/03/09 01:09:59;;;;;;;;;;;;;;;;;;4989662;28;19926;-95
2023/03/09 01:12:25;;;;;;;;;;;;;;;;;;4973658;28;19922;-95
2023/03/09 01:14:56;;;;;;;;;;;;;;;;;;4973275;28;19922;-93
2023/03/09 01:17:22;;;;;;;;;;;;;;;;;;4992429;28;19984;-94
2023/03/09 01:19:48;;;;;;;;;;;;;;;;;;5008875;28;19926;-94
2023/03/09 01:22:14;;;;;;;;;;;;;;;;;;4992584;28;19922;-94
2023/03/09 01:24:43;;;;;;;;;;;;;;;;;;5008902;28;20271;-93
2023/03/09 01:27:10;;;;;;;;;;;;;;;;;;4991499;28;19968;-93
2023/03/09 01:29:38;;;;;;;;;;;;;;;;;;4992228;28;20359;-93
2023/03/09 01:32:04;;;;;;;;;;;;;;;;;;4992522;28;19947;-93
2023/03/09 01:34:30;;;;;;;;;;;;;;;;;;4992350;28;19922;-93
2023/03/09 01:36:56;;;;;;;;;;;;;;;;;;4992249;28;19926;-93
2023/03/09 01:39:22;;;;;;;;;;;;;;;;;;4992452;28;19922;-92
2023/03/09 01:41:48;;;;;;;;;;;;;;;;;;4992585;28;20286;-93
2023/03/09 01:44:14;;;;;;;;;;;;;;;;;;4992534;28;19937;-93
2023/03/09 01:46:40;;;;;;;;;;;;;;;;;;4992408;28;19928;-93
2023/03/09 01:49:06;;;;;;;;;;;;;;;;;;4994230;28;20012;-93
2023/03/09 01:51:33;;;;;;;;;;;;;;;;;;4996098;28;19922;-93
2023/03/09 01:53:59;;;;;;;;;;;;;;;;;;4996434;28;20298;-93
2023/03/09 01:56:25;;;;;;;;;;;;;;;;;;4995777;28;19925;-93
2023/03/09 01:58:54;;;;;;;;;;;;;;;;;;5012019;28;19990;-95
2023/03/09 02:01:23;;;;;;;;;;;;;;;;;;4996445;28;19976;-95
2023/03/09 02:03:49;;;;;;;;;;;;;;;;;;5012588;28;19922;-94
2023/03/09 02:06:18;;;;;;;;;;;;;;;;;;5011729;28;20012;-95
2023/03/09 02:08:44;;;;;;;;;;;;;;;;;;4996079;28;20028;-94
2023/03/09 02:11:10;;;;;;;;;;;;;;;;;;4996014;28;19925;-94
2023/03/09 02:13:36;;;;;;;;;;;;;;;;;;4995852;28;19922;-95
2023/03/09 02:16:02;;;;;;;;;;;;;;;;;;4995993;28;19929;-94
2023/03/09 02:18:28;;;;;;;;;;;;;;;;;;4995540;28;20016;-94
2023/03/09 02:20:57;;;;;;;;;;;;;;;;;;4996841;28;20346;-94
2023/03/09 02:23:23;;;;;;;;;;;;;;;;;;4979930;28;19922;-95
2023/03/09 02:25:49;;;;;;;;;;;;;;;;;;4994952;28;19976;-94
2023/03/09 02:28:15;;;;;;;;;;;;;;;;;;4995608;28;19933;-94
2023/03/09 02:30:41;;;;;;;;;;;;;;;;;;4995347;28;19926;-94
2023/03/09 02:33:07;;;;;;;;;;;;;;;;;;4996133;28;20005;-94
2023/03/09 02:35:33;;;;;;;;;;;;;;;;;;4995897;28;19929;-93
2023/03/09 02:38:02;;;;;;;;;;;;;;;;;;4995277;28;19925;-94
2023/03/09 02:40:28;;;;;;;;;;;;;;;;;;4995485;28;19926;-95
2023/03/09 02:42:54;;;;;;;;;;;;;;;;;;4995433;28;19984;-93
2023/03/09 02:45:23;;;;;;;;;;;;;;;;;;5012444;28;20268;-95
2023/03/09 02:47:52;;;;;;;;;;;;;;;;;;4995295;28;20260;-95
2023/03/09 02:50:19;;;;;;;;;;;;;;;;;;4995544;28;19926;-95
2023/03/09 02:52:45;;;;;;;;;;;;;;;;;;4995373;28;20558;-94
2023/03/09 02:55:11;;;;;;;;;;;;;;;;;;4995345;28;19962;-94
2023/03/09 02:57:37;;;;;;;;;;;;;;;;;;4994987;28;19980;-94
2023/03/09 03:00:03;;;;;;;;;;;;;;;;;;4994712;28;19921;-94
2023/03/09 03:02:29;;;;;;;;;;;;;;;;;;4994946;28;19929;-94
2023/03/09 03:04:56;;;;;;;;;;;;;;;;;;4978884;28;19922;-94
2023/03/09 03:07:22;;;;;;;;;;;;;;;;;;4994834;28;19933;-94
2023/03/09 03:09:48;;;;;;;;;;;;;;;;;;4995120;28;20017;-95
2023/03/09 03:12:14;;;;;;;;;;;;;;;;;;4994879;28;19929;-94
2023/03/09 03:14:43;;;;;;;;;;;;;;;;;;4978336;28;19922;-94
2023/03/09 03:17:09;;;;;;;;;;;;;;;;;;4995056;28;19935;-94
2023/03/09 03:19:39;;;;;;;;;;;;;;;;;;4994659;28;20061;-94
2023/03/09 03:22:08;;;;;;;;;;;;;;;;;;4996236;28;19932;-94
2023/03/09 03:24:36;;;;;;;;;;;;;;;;;;4994435;28;20011;-94
2023/03/09 03:27:02;;;;;;;;;;;;;;;;;;4979084;28;20008;-94
2023/03/09 03:29:28;;;;;;;;;;;;;;;;;;4995285;28;19930;-94
2023/03/09 03:31:54;;;;;;;;;;;;;;;;;;4995149;28;19922;-94
2023/03/09 03:34:20;;;;;;;;;;;;;;;;;;4994582;28;19922;-94
2023/03/09 03:36:58;;;;;;;;;;;;;;;;;;5009114;28;19930;-94
2023/03/09 03:39:27;;;;;;;;;;;;;;;;;;4994330;28;19926;-95
2023/03/09 03:41:56;;;;;;;;;;;;;;;;;;4978230;28;19928;-94
2023/03/09 03:44:25;;;;;;;;;;;;;;;;;;4977851;28;19967;-92
2023/03/09 03:46:51;;;;;;;;;;;;;;;;;;4993516;28;20367;-93
2023/03/09 03:49:17;;;;;;;;;;;;;;;;;;4993414;28;19921;-92
2023/03/09 03:51:43;;;;;;;;;;;;;;;;;;4992792;28;19922;-93
2023/03/09 03:54:10;;;;;;;;;;;;;;;;;;4993375;28;19946;-92
2023/03/09 03:56:36;;;;;;;;;;;;;;;;;;5009822;28;20390;-93
2023/03/09 03:59:02;;;;;;;;;;;;;;;;;;4993411;28;20283;-92
2023/03/09 04:01:28;;;;;;;;;;;;;;;;;;4993456;28;19925;-93
2023/03/09 04:03:54;;;;;;;;;;;;;;;;;;4993266;28;19928;-93
2023/03/09 04:06:20;;;;;;;;;;;;;;;;;;4993065;28;20185;-92
2023/03/09 04:08:46;;;;;;;;;;;;;;;;;;4993018;28;19937;-93
2023/03/09 04:11:12;;;;;;;;;;;;;;;;;;4993513;28;20016;-92
2023/03/09 04:13:37;;;;;;;;;;;;;;;;;;4993411;28;19930;-92
2023/03/09 04:16:04;;;;;;;;;;;;;;;;;;4977091;28;20355;-92
2023/03/09 04:18:30;;;;;;;;;;;;;;;;;;4992803;28;20016;-92
2023/03/09 04:20:56;;;;;;;;;;;;;;;;;;4992982;28;20302;-92
2023/03/09 04:23:22;;;;;;;;;;;;;;;;;;4993045;28;20026;-92
2023/03/09 04:25:48;;;;;;;;;;;;;;;;;;4992684;28;20402;-91
2023/03/09 04:28:13;;;;;;;;;;;;;;;;;;4992471;28;19921;-93
2023/03/09 04:30:39;;;;;;;;;;;;;;;;;;4992977;28;19925;-93
2023/03/09 04:33:05;;;;;;;;;;;;;;;;;;4993432;28;19988;-93
2023/03/09 04:35:32;;;;;;;;;;;;;;;;;;4976606;28;19926;-92
2023/03/09 04:38:00;;;;;;;;;;;;;;;;;;4976524;28;19932;-93
2023/03/09 04:40:27;;;;;;;;;;;;;;;;;;4992815;28;19921;-93
2023/03/09 04:42:53;;;;;;;;;;;;;;;;;;4993043;28;19929;-93
2023/03/09 04:45:19;;;;;;;;;;;;;;;;;;4993054;28;19928;-92
2023/03/09 04:47:45;;;;;;;;;;;;;;;;;;4992809;28;20020;-93
2023/03/09 04:50:11;;;;;;;;;;;;;;;;;;4992260;28;19922;-93
2023/03/09 04:52:37;;;;;;;;;;;;;;;;;;4992788;28;20363;-92
2023/03/09 04:55:03;;;;;;;;;;;;;;;;;;4992968;28;19929;-93
2023/03/09 04:57:32;;;;;;;;;;;;;;;;;;4992484;28;20024;-93
2023/03/09 04:59:59;;;;;;;;;;;;;;;;;;4992559;28;19969;-92
2023/03/09 05:02:28;;;;;;;;;;;;;;;;;;4992608;28;19980;-94
2023/03/09 05:04:54;;;;;;;;;;;;;;;;;;4992657;28;20295;-93
2023/03/09 05:07:20;;;;;;;;;;;;;;;;;;4992642;28;19926;-93
2023/03/09 05:09:46;;;;;;;;;;;;;;;;;;4992854;28;20421;-94
2023/03/09 05:12:12;;;;;;;;;;;;;;;;;;4992445;28;20290;-94
2023/03/09 05:14:38;;;;;;;;;;;;;;;;;;4992606;28;19926;-94
2023/03/09 05:17:04;;;;;;;;;;;;;;;;;;4992453;28;20371;-94
2023/03/09 05:19:31;;;;;;;;;;;;;;;;;;4992500;28;19922;-93
2023/03/09 05:22:00;;;;;;;;;;;;;;;;;;4992258;28;20363;-93
2023/03/09 05:24:30;;;;;;;;;;;;;;;;;;4996712;28;20287;-94
2023/03/09 05:26:59;;;;;;;;;;;;;;;;;;4995878;28;20013;-93
2023/03/09 05:29:24;;;;;;;;;;;;;;;;;;4996531;28;20196;-94
2023/03/09 05:31:51;;;;;;;;;;;;;;;;;;4996345;28;19929;-93
2023/03/09 05:34:20;;;;;;;;;;;;;;;;;;4996431;28;19961;-93
2023/03/09 05:36:46;;;;;;;;;;;;;;;;;;4996427;28;20397;-94
2023/03/09 05:39:13;;;;;;;;;;;;;;;;;;4996806;28;19998;-94
2023/03/09 05:41:40;;;;;;;;;;;;;;;;;;4980338;28;19921;-93
2023/03/09 05:44:28;;;;;;;;;;;;;;;;;;4961849;28;19921;-94
2023/03/09 05:46:56;;;;;;;;;;;;;;;;;;4980535;28;20146;-94
2023/03/09 05:49:28;;;;;;;;;;;;;;;;;;5012539;28;19928;-94
2023/03/09 05:51:55;;;;;;;;;;;;;;;;;;4980343;28;19929;-95
2023/03/09 05:54:22;;;;;;;;;;;;;;;;;;4996125;28;19922;-95
2023/03/09 05:56:48;;;;;;;;;;;;;;;;;;4996785;28;20031;-95
2023/03/09 05:59:15;;;;;;;;;;;;;;;;;;5022937;23;20340;-96
2023/03/09 06:01:44;;;;;;;;;;;;;;;;;;4964530;28;19922;-95
2023/03/09 06:04:18;;;;;;;;;;;;;;;;;;4963792;28;20046;-94
2023/03/09 06:06:44;;;;;;;;;;;;;;;;;;4963294;28;19929;-93
2023/03/09 06:09:23;;;;;;;;;;;;;;;;;;4996988;28;20441;-93
2023/03/09 06:11:51;;;;;;;;;;;;;;;;;;4979814;28;19922;-93
2023/03/09 06:14:17;;;;;;;;;;;;;;;;;;4963074;28;19922;-93
2023/03/09 06:16:47;;;;;;;;;;;;;;;;;;4979164;28;20363;-93
2023/03/09 06:19:13;;;;;;;;;;;;;;;;;;4963272;28;19921;-93
2023/03/09 06:21:41;;;;;;;;;;;;;;;;;;4979273;28;19973;-93
2023/03/09 06:24:07;;;;;;;;;;;;;;;;;;4962928;28;20370;-93
2023/03/09 06:26:37;;;;;;;;;;;;;;;;;;4978873;28;19925;-94
2023/03/09 06:29:03;;;;;;;;;;;;;;;;;;4978516;28;20390;-94
2023/03/09 06:31:32;;;;;;;;;;;;;;;;;;4963377;28;19922;-93
2023/03/09 06:33:58;;;;;;;;;;;;;;;;;;4963191;28;20255;-94
2023/03/09 06:36:24;;;;;;;;;;;;;;;;;;4978697;28;20462;-93
2023/03/09 06:38:52;;;;;;;;;;;;;;;;;;4979298;28;19928;-93
2023/03/09 06:41:27;;;;;;;;;;;;;;;;;;4962966;28;20391;-93
2023/03/09 06:44:02;;;;;;;;;;;;;;;;;;4979738;28;19922;-93
2023/03/09 06:46:28;;;;;;;;;;;;;;;;;;4963844;28;20013;-93
2023/03/09 06:49:05;;;;;;;;;;;;;;;;;;4997229;28;20251;-95
2023/03/09 06:51:35;;;;;;;;;;;;;;;;;;4963630;28;19928;-94
2023/03/09 06:54:07;;;;;;;;;;;;;;;;;;4963835;28;19929;-96
2023/03/09 06:56:56;;;;;;;;;;;;;;;;;;4977870;28;20394;-93
2023/03/09 06:59:22;;;;;;;;;;;;;;;;;;4959035;28;20295;-94
2023/03/09 07:01:48;;;;;;;;;;;;;;;;;;4975987;28;19929;-94
2023/03/09 07:04:17;;;;;;;;;;;;;;;;;;4978448;28;19922;-94
2023/03/09 07:06:43;;;;;;;;;;;;;;;;;;4962283;28;20394;-93
2023/03/09 07:09:10;;;;;;;;;;;;;;;;;;4962486;28;19925;-94
2023/03/09 07:11:36;;;;;;;;;;;;;;;;;;4962853;28;19937;-94
2023/03/09 07:14:06;;;;;;;;;;;;;;;;;;4978797;28;19925;-95
2023/03/09 07:16:38;;;;;;;;;;;;;;;;;;4979584;28;20021;-93
2023/03/09 07:19:04;;;;;;;;;;;;;;;;;;4962313;28;19969;-93
2023/03/09 07:21:29;;;;;;;;;;;;;;;;;;4962366;28;20236;-93
2023/03/09 07:23:57;;;;;;;;;;;;;;;;;;4962213;28;20421;-93
2023/03/09 07:26:22;;;;;;;;;;;;;;;;;;4962125;28;20142;-93
2023/03/09 07:28:49;;;;;;;;;;;;;;;;;;4977940;28;20387;-94
2023/03/09 07:31:15;;;;;;;;;;;;;;;;;;4962382;28;19973;-94
2023/03/09 07:33:41;;;;;;;;;;;;;;;;;;4961973;28;20291;-94
2023/03/09 07:36:07;;;;;;;;;;;;;;;;;;4961890;28;20024;-94
2023/03/09 07:38:38;;;;;;;;;;;;;;;;;;4977780;28;19926;-94
2023/03/09 07:41:05;;;;;;;;;;;;;;;;;;4961733;28;19922;-95
2023/03/09 07:43:31;;;;;;;;;;;;;;;;;;4961866;28;19922;-94
2023/03/09 07:45:57;;;;;;;;;;;;;;;;;;4961271;28;19922;-93
2023/03/09 07:48:23;;;;;;;;;;;;;;;;;;4962613;28;19922;-95
2023/03/09 07:50:52;;;;;;;;;;;;;;;;;;4962855;28;19922;-95
2023/03/09 07:53:21;;;;;;;;;;;;;;;;;;4978708;28;19921;-94
2023/03/09 07:55:47;;;;;;;;;;;;;;;;;;4961297;28;20260;-93
2023/03/09 07:58:12;;;;;;;;;;;;;;;;;;4962031;28;19948;-96
2023/03/09 08:00:51;;;;;;;;;;;;;;;;;;4999993;28;19929;-95
2023/03/09 08:03:17;;;;;;;;;;;;;;;;;;4970723;28;19977;-92
2023/03/09 08:05:43;;;;;;;;;;;;;;;;;;4968912;28;19929;-94
2023/03/09 08:08:11;;;;;;;;;;;;;;;;;;4985646;28;19922;-94
2023/03/09 08:10:39;;;;;;;;;;;;;;;;;;5007988;28;19928;-95
2023/03/09 08:13:10;;;;;;;;;;;;;;;;;;5015917;28;19913;-96
2023/03/09 08:15:42;;;;;;;;;;;;;;;;;;5095938;23;19993;-96
2023/03/09 08:18:08;;;;;;;;;;;;;;;;;;4966236;28;19925;-94
2023/03/09 08:28:21;;;;;;;;;;;;;;;;;;4996497;23;20080;-93
2023/03/09 08:30:47;;;;;;;;;;;;;;;;;;4960320;28;20391;-93
2023/03/09 08:33:21;;;;;;;;;;;;;;;;;;4978161;28;19949;-93
2023/03/09 08:35:46;;;;;;;;;;;;;;;;;;4961171;28;20016;-94
2023/03/09 08:38:23;;;;;;;;;;;;;;;;;;4962310;28;20664;-94
2023/03/09 08:41:08;;;;;;;;;;;;;;;;;;4994444;28;19920;-93
2023/03/09 08:43:37;;;;;;;;;;;;;;;;;;4976757;28;19984;-93
2023/03/09 08:46:04;;;;;;;;;;;;;;;;;;4961270;28;19926;-93
2023/03/09 08:48:33;;;;;;;;;;;;;;;;;;4976544;28;19922;-93
2023/03/09 08:51:00;;;;;;;;;;;;;;;;;;4976728;28;19922;-94
2023/03/09 08:53:30;;;;;;;;;;;;;;;;;;4977261;28;19968;-94
2023/03/09 08:55:59;;;;;;;;;;;;;;;;;;4977126;28;19968;-94
2023/03/09 08:58:26;;;;;;;;;;;;;;;;;;4960264;28;19930;-95
2023/03/09 09:00:58;;;;;;;;;;;;;;;;;;4993589;28;19928;-94
2023/03/09 09:03:24;;;;;;;;;;;;;;;;;;4960350;28;19922;-93
2023/03/09 09:05:52;;;;;;;;;;;;;;;;;;4976058;28;19922;-91
2023/03/09 09:08:33;;;;;;;;;;;;;;;;;;4979263;28;19922;-96
2023/03/09 09:11:02;;;;;;;;;;;;;;;;;;4971513;28;20390;-92
2023/03/09 09:13:28;;;;;;;;;;;;;;;;;;4979563;28;19976;-93
2023/03/09 09:15:54;;;;;;;;;;;;;;;;;;4994944;28;20279;-92
2023/03/09 09:18:21;;;;;;;;;;;;;;;;;;4979296;28;19933;-90
2023/03/09 09:20:48;;;;;;;;;;;;;;;;;;4979056;28;19921;-91
2023/03/09 09:23:32;;;;;;;;;;;;;;;;;;4981294;28;19926;-96
2023/03/09 09:26:02;;;;;;;;;;;;;;;;;;4983126;28;19929;-95
2023/03/09 09:28:28;;;;;;;;;;;;;;;;;;4976284;28;19926;-95
2023/03/09 09:30:54;;;;;;;;;;;;;;;;;;4978546;28;19922;-96
2023/03/09 09:41:38;;;;;;;;;;;;;;;;;;5861397;22;20236;-93
2023/03/09 09:46:43;;;;;;;;;;;;;;;;;;5381083;23;19926;-92
2023/03/09 09:49:09;;;;;;;;;;;;;;;;;;4959629;28;19973;-91
2023/03/09 09:51:35;;;;;;;;;;;;;;;;;;4959945;28;20017;-92
2023/03/09 09:57:02;;;;;;;;;;;;;;;;;;4936760;29;19956;-93
2023/03/09 09:59:31;;;;;;;;;;;;;;;;;;4921519;29;20052;-91
2023/03/09 10:01:57;;;;;;;;;;;;;;;;;;4920681;29;19980;-91
2023/03/09 10:04:23;;;;;;;;;;;;;;;;;;4939899;28;20014;-93
2023/03/09 10:06:49;;;;;;;;;;;;;;;;;;4940304;28;20016;-91
2023/03/09 10:09:16;;;;;;;;;;;;;;;;;;4941662;28;19969;-92
2023/03/09 10:11:42;;;;;;;;;;;;;;;;;;4944209;28;20334;-92
2023/03/09 10:14:08;;;;;;;;;;;;;;;;;;4943885;28;19970;-91
2023/03/09 10:16:37;;;;;;;;;;;;;;;;;;4944024;28;20293;-87
2023/03/09 10:19:04;;;;;;;;;;;;;;;;;;4943461;28;19926;-89
2023/03/09 10:21:30;;;;;;;;;;;;;;;;;;4943228;28;19929;-88
2023/03/09 10:23:56;;;;;;;;;;;;;;;;;;4943065;28;19922;-89
2023/03/09 10:26:22;;;;;;;;;;;;;;;;;;4942885;28;20013;-90
2023/03/09 10:28:48;;;;;;;;;;;;;;;;;;4943256;28;19961;-90
2023/03/09 10:31:14;;;;;;;;;;;;;;;;;;4978316;28;20036;-90
2023/03/09 10:33:40;;;;;;;;;;;;;;;;;;4972981;28;19923;-88
2023/03/09 10:36:06;;;;;;;;;;;;;;;;;;4991386;28;19926;-88
2023/03/09 10:38:32;;;;;;;;;;;;;;;;;;4975094;28;19926;-89
2023/03/09 10:40:58;;;;;;;;;;;;;;;;;;4991464;28;20345;-88
2023/03/09 10:43:24;;;;;;;;;;;;;;;;;;4975157;28;20026;-87
2023/03/09 10:45:50;;;;;;;;;;;;;;;;;;4991083;28;19926;-87
2023/03/09 10:48:16;;;;;;;;;;;;;;;;;;4994828;28;19926;-91
2023/03/09 10:50:42;;;;;;;;;;;;;;;;;;4978428;28;20078;-87
2023/03/09 10:53:08;;;;;;;;;;;;;;;;;;4978102;28;20468;-88
2023/03/09 10:55:33;;;;;;;;;;;;;;;;;;4978053;28;19922;-87
2023/03/09 10:57:59;;;;;;;;;;;;;;;;;;4977780;28;19933;-86
2023/03/09 11:00:25;;;;;;;;;;;;;;;;;;4978102;28;20287;-91
2023/03/09 11:02:51;;;;;;;;;;;;;;;;;;4978260;28;19922;-90
2023/03/09 11:05:17;;;;;;;;;;;;;;;;;;4978018;28;20036;-90
2023/03/09 11:07:43;;;;;;;;;;;;;;;;;;4977756;28;19922;-90
2023/03/09 11:10:09;;;;;;;;;;;;;;;;;;4977938;28;19925;-91
2023/03/09 11:12:35;;;;;;;;;;;;;;;;;;4977596;28;19925;-88
2023/03/09 11:15:02;;;;;;;;;;;;;;;;;;4977410;28;19922;-88
2023/03/09 11:17:28;;;;;;;;;;;;;;;;;;4977168;28;19930;-88
2023/03/09 11:19:54;;;;;;;;;;;;;;;;;;4976979;28;19921;-88
2023/03/09 11:22:20;;;;;;;;;;;;;;;;;;4976460;28;19922;-88
2023/03/09 11:24:46;;;;;;;;;;;;;;;;;;4977357;28;19922;-88
2023/03/09 11:27:12;;;;;;;;;;;;;;;;;;4977162;28;19922;-90
2023/03/09 11:29:38;;;;;;;;;;;;;;;;;;4978029;28;19926;-93
2023/03/09 11:32:04;;;;;;;;;;;;;;;;;;4978140;28;19922;-92
2023/03/09 11:34:30;;;;;;;;;;;;;;;;;;4978085;28;19922;-91
2023/03/09 11:36:56;;;;;;;;;;;;;;;;;;4977979;28;19995;-92
2023/03/09 11:39:22;;;;;;;;;;;;;;;;;;4977885;28;20008;-93
2023/03/09 11:41:48;;;;;;;;;;;;;;;;;;4977964;28;19961;-88
2023/03/09 11:44:14;;;;;;;;;;;;;;;;;;4976969;28;19922;-89
2023/03/09 11:46:40;;;;;;;;;;;;;;;;;;4976676;28;20061;-89
2023/03/09 11:49:06;;;;;;;;;;;;;;;;;;4976930;28;19929;-93
2023/03/09 11:51:32;;;;;;;;;;;;;;;;;;4978871;28;20056;-94
2023/03/09 11:53:58;;;;;;;;;;;;;;;;;;4977390;28;19980;-89
2023/03/09 11:56:26;;;;;;;;;;;;;;;;;;4977009;28;19922;-91
2023/03/09 11:58:52;;;;;;;;;;;;;;;;;;4977002;28;19925;-91
2023/03/09 12:01:18;;;;;;;;;;;;;;;;;;4977090;28;20016;-91
2023/03/09 12:03:44;;;;;;;;;;;;;;;;;;4977092;28;20032;-90
2023/03/09 12:06:11;;;;;;;;;;;;;;;;;;4976948;28;20378;-88
2023/03/09 12:08:38;;;;;;;;;;;;;;;;;;4977987;28;20003;-90
2023/03/09 12:11:04;;;;;;;;;;;;;;;;;;4977086;28;19928;-90
2023/03/09 12:13:30;;;;;;;;;;;;;;;;;;4977166;28;20008;-93
2023/03/09 12:16:02;;;;;;;;;;;;;;;;;;4977033;28;19922;-90
2023/03/09 12:18:28;;;;;;;;;;;;;;;;;;4977035;28;20387;-92
2023/03/09 12:20:54;;;;;;;;;;;;;;;;;;4977051;28;20421;-92
2023/03/09 12:23:20;;;;;;;;;;;;;;;;;;4977319;28;19922;-92
2023/03/09 12:25:47;;;;;;;;;;;;;;;;;;4977350;28;20375;-92
2023/03/09 12:28:13;;;;;;;;;;;;;;;;;;4976839;28;19928;-91
2023/03/09 12:30:39;;;;;;;;;;;;;;;;;;4977051;28;19922;-92
2023/03/09 12:33:05;;;;;;;;;;;;;;;;;;4977076;28;19921;-90
2023/03/09 12:35:31;;;;;;;;;;;;;;;;;;4976963;28;20306;-91
2023/03/09 12:37:57;;;;;;;;;;;;;;;;;;4976537;28;19933;-94
2023/03/09 12:40:24;;;;;;;;;;;;;;;;;;4978567;28;19922;-93
2023/03/09 12:42:50;;;;;;;;;;;;;;;;;;4996812;28;19922;-93
2023/03/09 12:45:16;;;;;;;;;;;;;;;;;;4984394;28;19969;-93
2023/03/09 12:47:45;;;;;;;;;;;;;;;;;;4983484;28;19921;-93
2023/03/09 12:50:33;;;;;;;;;;;;;;;;;;5001074;28;20042;-92
2023/03/09 12:52:58;;;;;;;;;;;;;;;;;;4990429;28;19930;-94
2023/03/09 12:55:25;;;;;;;;;;;;;;;;;;4977572;28;19937;-94
2023/03/09 12:57:58;;;;;;;;;;;;;;;;;;4977839;28;19926;-93
2023/03/09 13:00:29;;;;;;;;;;;;;;;;;;4976897;28;19922;-96
2023/03/09 13:02:56;;;;;;;;;;;;;;;;;;4977850;28;19948;-93
2023/03/09 13:05:22;;;;;;;;;;;;;;;;;;4978725;28;19925;-93
2023/03/09 13:07:48;;;;;;;;;;;;;;;;;;4977986;28;19925;-94
2023/03/09 13:10:14;;;;;;;;;;;;;;;;;;4978015;28;19921;-96
2023/03/09 13:12:59;;;;;;;;;;;;;;;;;;;;;
2023/03/09 13:18:07;;;;;;;;;;;;;;;;;;5514730;22;20441;-90
2023/03/09 13:20:33;;;;;;;;;;;;;;;;;;4962699;28;19922;-93
2023/03/09 13:22:59;;;;;;;;;;;;;;;;;;4961033;28;20016;-92
2023/03/09 13:25:25;;;;;;;;;;;;;;;;;;4960483;28;20020;-92
2023/03/09 13:27:51;;;;;;;;;;;;;;;;;;4960785;28;20374;-93
2023/03/09 13:30:17;;;;;;;;;;;;;;;;;;4960583;28;19922;-94
2023/03/09 13:32:43;;;;;;;;;;;;;;;;;;4962173;28;19928;-92
2023/03/09 13:35:12;;;;;;;;;;;;;;;;;;4960961;28;20382;-93
2023/03/09 13:37:41;;;;;;;;;;;;;;;;;;4960865;28;19926;-93
2023/03/09 13:40:08;;;;;;;;;;;;;;;;;;4960653;28;19929;-93
2023/03/09 13:42:34;;;;;;;;;;;;;;;;;;4960810;28;19945;-93
2023/03/09 13:45:00;;;;;;;;;;;;;;;;;;4961658;28;19922;-95
2023/03/09 13:47:31;;;;;;;;;;;;;;;;;;4964821;28;19933;-95
2023/03/09 13:49:59;;;;;;;;;;;;;;;;;;4966501;28;19921;-96
2023/03/09 13:52:41;;;;;;;;;;;;;;;;;;;;;
2023/03/09 13:55:16;;;;;;;;;;;;;;;;;;4981732;28;19929;-92
2023/03/09 13:57:44;;;;;;;;;;;;;;;;;;4976984;28;20009;-93
2023/03/09 14:00:10;;;;;;;;;;;;;;;;;;4963468;28;20429;-92
2023/03/09 14:02:37;;;;;;;;;;;;;;;;;;4979447;28;19922;-91
2023/03/09 14:05:07;;;;;;;;;;;;;;;;;;4964344;28;19968;-91
2023/03/09 14:07:33;;;;;;;;;;;;;;;;;;4963470;28;19922;-93
2023/03/09 14:10:00;;;;;;;;;;;;;;;;;;4965779;28;20270;-94
2023/03/09 14:12:38;;;;;;;;;;;;;;;;;;4995039;28;19922;-93
2023/03/09 14:15:07;;;;;;;;;;;;;;;;;;4963024;28;20377;-93
2023/03/09 14:17:32;;;;;;;;;;;;;;;;;;4963389;28;19933;-94
2023/03/09 14:19:58;;;;;;;;;;;;;;;;;;4980425;28;19922;-91
2023/03/09 14:22:27;;;;;;;;;;;;;;;;;;4967405;28;19932;-91
2023/03/09 14:24:53;;;;;;;;;;;;;;;;;;4971992;28;19992;-93
2023/03/09 14:27:19;;;;;;;;;;;;;;;;;;4983226;28;19909;-91
2023/03/09 14:29:45;;;;;;;;;;;;;;;;;;4985367;28;19926;-91
2023/03/09 14:32:14;;;;;;;;;;;;;;;;;;4963307;28;19933;-92
2023/03/09 14:34:40;;;;;;;;;;;;;;;;;;4979152;28;19921;-92
2023/03/09 14:37:06;;;;;;;;;;;;;;;;;;4965675;28;20317;-93
2023/03/09 14:39:48;;;;;;;;;;;;;;;;;;4984691;28;19929;-94
2023/03/09 14:42:17;;;;;;;;;;;;;;;;;;4970992;28;19922;-96
2023/03/09 14:44:46;;;;;;;;;;;;;;;;;;4973951;28;19925;-96
2023/03/09 14:47:12;;;;;;;;;;;;;;;;;;4993833;28;19922;-95
2023/03/09 14:49:38;;;;;;;;;;;;;;;;;;4963347;28;19975;-93
2023/03/09 14:55:08;;;;;;;;;;;;;;;;;;4942390;28;19929;-94
2023/03/09 14:57:34;;;;;;;;;;;;;;;;;;4958595;28;19931;-92
2023/03/09 15:00:00;;;;;;;;;;;;;;;;;;4959824;28;19922;-92
2023/03/09 15:02:26;;;;;;;;;;;;;;;;;;4943807;28;19922;-92
2023/03/09 15:04:52;;;;;;;;;;;;;;;;;;4943941;28;19969;-95
2023/03/09 15:07:21;;;;;;;;;;;;;;;;;;4954758;28;19937;-91
2023/03/09 15:09:47;;;;;;;;;;;;;;;;;;4962964;28;20392;-92
2023/03/09 15:12:13;;;;;;;;;;;;;;;;;;4963609;28;20051;-94
2023/03/09 15:14:39;;;;;;;;;;;;;;;;;;4962825;28;19922;-94
2023/03/09 15:17:06;;;;;;;;;;;;;;;;;;4961986;28;19933;-94
2023/03/09 15:19:32;;;;;;;;;;;;;;;;;;4962912;28;19926;-93
2023/03/09 15:22:01;;;;;;;;;;;;;;;;;;4961863;28;19933;-93
2023/03/09 15:24:43;;;;;;;;;;;;;;;;;;4979134;28;19921;-96
2023/03/09 15:27:13;;;;;;;;;;;;;;;;;;4979363;28;19921;-93
2023/03/09 15:29:39;;;;;;;;;;;;;;;;;;4962224;28;19922;-92
2023/03/09 15:32:26;;;;;;;;;;;;;;;;;;4962664;28;19972;-95
2023/03/09 15:34:54;;;;;;;;;;;;;;;;;;4982723;28;20385;-95
2023/03/09 15:37:20;;;;;;;;;;;;;;;;;;4963989;28;20128;-95
2023/03/09 15:39:49;;;;;;;;;;;;;;;;;;4966271;28;20363;-95
2023/03/09 15:47:44;;;;;;;;;;;;;;;;;;5055752;23;19926;-96
2023/03/09 15:50:25;;;;;;;;;;;;;;;;;;4981291;28;20004;-92
2023/03/09 15:52:51;;;;;;;;;;;;;;;;;;4978848;28;20016;-92
2023/03/09 15:55:17;;;;;;;;;;;;;;;;;;4977761;28;19976;-96
2023/03/09 15:57:42;;;;;;;;;;;;;;;;;;4961809;28;19926;-92
2023/03/09 16:00:08;;;;;;;;;;;;;;;;;;4977761;28;20027;-92
2023/03/09 16:02:34;;;;;;;;;;;;;;;;;;4977667;28;19929;-93
2023/03/09 16:05:00;;;;;;;;;;;;;;;;;;4963719;28;19922;-96
2023/03/09 16:07:26;;;;;;;;;;;;;;;;;;4978071;28;19922;-95
2023/03/09 16:12:38;;;;;;;;;;;;;;;;;;4968010;28;20119;-96
2023/03/09 16:15:10;;;;;;;;;;;;;;;;;;4969928;28;19945;-94
2023/03/09 16:17:39;;;;;;;;;;;;;;;;;;4979444;28;19988;-94
2023/03/09 16:20:10;;;;;;;;;;;;;;;;;;4979412;28;19921;-93
2023/03/09 16:22:39;;;;;;;;;;;;;;;;;;4962691;28;19972;-91
2023/03/09 16:25:10;;;;;;;;;;;;;;;;;;4977804;28;19930;-95
2023/03/09 16:27:39;;;;;;;;;;;;;;;;;;4963632;28;20267;-94
2023/03/09 16:30:05;;;;;;;;;;;;;;;;;;4960621;28;19984;-93
2023/03/09 16:32:31;;;;;;;;;;;;;;;;;;4960436;28;20400;-93
2023/03/09 16:34:57;;;;;;;;;;;;;;;;;;4960220;28;19921;-94
2023/03/09 16:37:23;;;;;;;;;;;;;;;;;;4979495;28;19926;-93
2023/03/09 16:39:49;;;;;;;;;;;;;;;;;;4960521;28;20287;-91
2023/03/09 16:42:15;;;;;;;;;;;;;;;;;;4959589;28;19922;-91
2023/03/09 16:44:41;;;;;;;;;;;;;;;;;;4959361;28;19945;-91
2023/03/09 16:47:07;;;;;;;;;;;;;;;;;;4959403;28;20267;-91
2023/03/09 16:49:33;;;;;;;;;;;;;;;;;;4959427;28;19929;-91
2023/03/09 16:52:01;;;;;;;;;;;;;;;;;;4959476;28;19929;-91
2023/03/09 16:54:27;;;;;;;;;;;;;;;;;;4959991;28;19929;-94
2023/03/09 16:56:53;;;;;;;;;;;;;;;;;;4960787;28;20374;-93
2023/03/09 16:59:19;;;;;;;;;;;;;;;;;;4975573;28;19926;-92
2023/03/09 17:01:45;;;;;;;;;;;;;;;;;;4959622;28;19945;-93
2023/03/09 17:04:14;;;;;;;;;;;;;;;;;;4960034;28;19922;-93
2023/03/09 17:06:40;;;;;;;;;;;;;;;;;;4975368;28;19921;-93
2023/03/09 17:09:06;;;;;;;;;;;;;;;;;;4959241;28;19922;-94
2023/03/09 17:11:32;;;;;;;;;;;;;;;;;;4959797;28;19922;-92
2023/03/09 17:13:58;;;;;;;;;;;;;;;;;;4959516;28;19925;-93
2023/03/09 17:16:24;;;;;;;;;;;;;;;;;;4959546;28;19922;-94
2023/03/09 17:18:50;;;;;;;;;;;;;;;;;;4959328;28;19962;-92
2023/03/09 17:21:16;;;;;;;;;;;;;;;;;;4962911;28;19968;-91
2023/03/09 17:23:42;;;;;;;;;;;;;;;;;;4962991;28;20008;-92